createdAt,value
2019-02-18T00:02:47.837Z,20.93
2019-02-18T00:06:10.447Z,20.20
2019-02-18T00:09:32.711Z,21.20
2019-02-18T00:12:55.252Z,20.30
2019-02-18T00:16:17.976Z,20.90
2019-02-18T00:19:40.290Z,20.40
2019-02-18T00:23:02.855Z,19.77
2019-02-18T00:26:25.201Z,21.47
2019-02-18T00:29:47.864Z,20.03
2019-02-18T00:33:10.322Z,20.60
2019-02-18T00:36:33.646Z,21.17
2019-02-18T00:39:56.227Z,20.57
2019-02-18T00:43:18.582Z,20.60
2019-02-18T00:46:41.071Z,20.17
2019-02-18T00:50:04.154Z,21.47
2019-02-18T00:53:26.769Z,21.23
2019-02-18T00:56:49.216Z,21.53
2019-02-18T01:00:13.946Z,21.50
2019-02-18T01:03:36.768Z,21.03
2019-02-18T01:06:59.095Z,22.83
2019-02-18T01:10:21.636Z,22.30
2019-02-18T01:13:43.815Z,22.10
2019-02-18T01:17:06.594Z,22.17
2019-02-18T01:20:29.361Z,22.73
2019-02-18T01:23:51.835Z,21.33
2019-02-18T01:27:14.188Z,21.47
2019-02-18T01:30:36.683Z,22.10
2019-02-18T01:33:59.560Z,21.97
2019-02-18T01:37:22.350Z,22.00
2019-02-18T01:40:45.263Z,23.37
2019-02-18T01:44:07.697Z,22.93
2019-02-18T01:47:30.436Z,24.43
2019-02-18T01:50:53.213Z,22.47
2019-02-18T01:54:15.393Z,22.80
2019-02-18T01:57:37.700Z,22.37
2019-02-18T02:01:00.032Z,22.47
2019-02-18T02:04:22.650Z,22.17
2019-02-18T02:07:55.455Z,22.17
2019-02-18T02:11:09.832Z,23.20
2019-02-18T02:14:32.515Z,23.00
2019-02-18T02:17:55.164Z,24.07
2019-02-18T02:21:18.099Z,23.63
2019-02-18T02:24:40.746Z,24.00
2019-02-18T02:28:03.356Z,23.47
2019-02-18T02:31:26.016Z,23.93
2019-02-18T02:34:48.406Z,22.67
2019-02-18T02:38:10.930Z,23.70
2019-02-18T02:41:33.058Z,24.10
2019-02-18T02:44:55.481Z,23.53
2019-02-18T02:48:18.016Z,25.33
2019-02-18T02:51:40.701Z,25.60
2019-02-18T02:55:03.140Z,24.93
2019-02-18T02:58:25.872Z,26.17
2019-02-18T03:01:48.012Z,25.07
2019-02-18T03:05:10.572Z,25.23
2019-02-18T03:08:33.092Z,25.23
2019-02-18T03:11:55.623Z,25.23
2019-02-18T03:15:18.405Z,26.43
2019-02-18T03:18:40.845Z,26.60
2019-02-18T03:22:03.379Z,25.60
2019-02-18T03:25:30.123Z,26.57
2019-02-18T03:29:16.693Z,25.93
2019-02-18T03:32:47.924Z,25.47
2019-02-18T03:36:10.210Z,27.93
2019-02-18T03:39:32.700Z,26.50
2019-02-18T03:42:55.176Z,27.00
2019-02-18T03:46:17.597Z,28.23
2019-02-18T03:49:40.142Z,26.03
2019-02-18T03:53:02.538Z,27.43
2019-02-18T03:56:25.254Z,27.60
2019-02-18T03:59:47.764Z,26.97
2019-02-18T04:03:10.439Z,28.40
2019-02-18T04:06:32.957Z,28.77
2019-02-18T04:09:55.167Z,27.20
2019-02-18T04:13:17.870Z,27.87
2019-02-18T04:16:40.156Z,28.00
2019-02-18T04:20:02.400Z,27.67
2019-02-18T04:23:24.842Z,30.13
2019-02-18T04:26:47.621Z,29.83
2019-02-18T04:30:10.499Z,29.83
2019-02-18T04:33:32.834Z,29.73
2019-02-18T04:36:55.133Z,31.20
2019-02-18T04:40:17.189Z,29.17
2019-02-18T04:43:41.951Z,29.73
2019-02-18T04:47:03.790Z,28.90
2019-02-18T04:50:25.974Z,29.80
2019-02-18T04:53:48.084Z,30.30
2019-02-18T04:57:10.629Z,31.13
2019-02-18T05:00:33.163Z,30.80
2019-02-18T05:03:55.802Z,29.73
2019-02-18T05:07:18.250Z,32.00
2019-02-18T05:10:41.046Z,28.60
2019-02-18T05:14:03.795Z,29.80
2019-02-18T05:17:26.481Z,28.70
2019-02-18T05:20:48.977Z,27.50
2019-02-18T05:24:11.734Z,30.27
2019-02-18T05:27:34.543Z,29.73
2019-02-18T05:30:57.269Z,30.80
2019-02-18T05:34:19.815Z,30.67
2019-02-18T05:37:42.236Z,29.00
2019-02-18T05:41:04.819Z,27.70
2019-02-18T05:44:27.254Z,28.70
2019-02-18T05:47:49.799Z,28.23
2019-02-18T05:51:12.406Z,28.00
2019-02-18T05:54:35.162Z,26.27
2019-02-18T05:57:57.784Z,27.37
2019-02-18T06:01:20.694Z,26.80
2019-02-18T06:04:43.791Z,26.27
2019-02-18T06:08:06.692Z,25.67
2019-02-18T06:11:29.294Z,25.23
2019-02-18T06:14:51.904Z,28.63
2019-02-18T06:18:14.463Z,28.07
2019-02-18T06:21:37.143Z,27.73
2019-02-18T06:24:59.807Z,28.57
2019-02-18T06:28:22.176Z,29.33
2019-02-18T06:31:44.265Z,30.53
2019-02-18T06:35:07.153Z,27.70
2019-02-18T06:38:29.649Z,30.53
2019-02-18T06:41:52.134Z,27.83
2019-02-18T06:45:33.755Z,28.87
2019-02-18T06:49:03.117Z,26.47
2019-02-18T06:52:25.641Z,26.00
2019-02-18T06:55:48.221Z,26.53
2019-02-18T06:59:25.410Z,27.27
2019-02-18T07:03:06.572Z,26.67
2019-02-18T07:07:00.440Z,24.03
2019-02-18T07:10:33.573Z,24.43
2019-02-18T07:13:55.673Z,24.80
2019-02-18T07:17:18.174Z,23.37
2019-02-18T07:20:40.777Z,22.80
2019-02-18T07:24:02.830Z,22.83
2019-02-18T07:27:25.501Z,22.50
2019-02-18T07:30:47.838Z,22.03
2019-02-18T07:34:10.515Z,22.47
2019-02-18T07:37:32.925Z,22.10
2019-02-18T07:40:55.599Z,22.97
2019-02-18T07:44:18.139Z,20.97
2019-02-18T07:47:40.889Z,22.37
2019-02-18T07:51:03.590Z,21.93
2019-02-18T07:54:25.810Z,21.63
2019-02-18T07:57:48.310Z,22.13
2019-02-18T08:01:10.878Z,20.43
2019-02-18T08:04:33.257Z,21.50
2019-02-18T08:07:55.736Z,20.33
2019-02-18T08:11:18.504Z,20.90
2019-02-18T08:14:41.104Z,21.23
2019-02-18T08:18:03.774Z,21.20
2019-02-18T08:21:26.743Z,23.50
2019-02-18T08:24:49.036Z,21.10
2019-02-18T08:28:11.929Z,23.70
2019-02-18T08:31:34.858Z,23.57
2019-02-18T08:35:07.644Z,23.07
2019-02-18T08:38:29.767Z,23.50
2019-02-18T08:41:52.502Z,23.27
2019-02-18T08:45:15.138Z,22.63
2019-02-18T08:48:37.594Z,22.20
2019-02-18T08:52:00.155Z,21.23
2019-02-18T08:55:22.614Z,22.13
2019-02-18T08:58:45.035Z,20.10
2019-02-18T09:02:07.377Z,20.73
2019-02-18T09:05:29.923Z,21.93
2019-02-18T09:08:52.425Z,20.17
2019-02-18T09:12:16.995Z,20.53
2019-02-18T09:15:39.110Z,20.40
2019-02-18T09:19:01.604Z,19.27
2019-02-18T09:22:40.488Z,19.33
2019-02-18T09:26:03.617Z,18.77
2019-02-18T09:29:26.130Z,19.67
2019-02-18T09:32:48.771Z,20.50
2019-02-18T09:36:11.766Z,18.57
2019-02-18T09:39:34.442Z,18.97
2019-02-18T09:42:57.136Z,19.57
2019-02-18T09:46:19.774Z,18.47
2019-02-18T09:49:42.468Z,18.80
2019-02-18T09:53:05.263Z,19.70
2019-02-18T09:56:27.996Z,18.53
2019-02-18T09:59:50.479Z,19.90
2019-02-18T10:03:12.869Z,20.37
2019-02-18T10:06:35.197Z,18.83
2019-02-18T10:09:57.902Z,17.77
2019-02-18T10:13:20.294Z,19.40
2019-02-18T10:16:42.934Z,17.30
2019-02-18T10:20:05.901Z,17.30
2019-02-18T10:23:28.407Z,18.77
2019-02-18T10:26:50.893Z,19.00
2019-02-18T10:30:13.875Z,18.57
2019-02-18T10:33:36.492Z,18.33
2019-02-18T10:36:59.241Z,17.80
2019-02-18T10:40:21.459Z,18.77
2019-02-18T10:43:43.875Z,17.43
2019-02-18T10:47:06.019Z,18.53
2019-02-18T10:50:28.662Z,19.37
2019-02-18T10:53:51.483Z,18.07
2019-02-18T10:57:14.130Z,17.63
2019-02-18T11:00:36.539Z,19.33
2019-02-18T11:03:59.073Z,19.53
2019-02-18T11:07:21.282Z,19.07
2019-02-18T11:10:43.488Z,17.93
2019-02-18T11:14:05.814Z,18.53
2019-02-18T11:17:38.514Z,18.67
2019-02-18T11:20:53.337Z,18.77
2019-02-18T11:24:15.897Z,17.63
2019-02-18T11:27:38.632Z,18.67
2019-02-18T11:31:01.145Z,17.10
2019-02-18T11:34:23.697Z,18.23
2019-02-18T11:37:45.862Z,18.30
2019-02-18T11:41:08.158Z,17.90
2019-02-18T11:44:30.555Z,17.73
2019-02-18T11:47:52.942Z,16.83
2019-02-18T11:51:15.613Z,16.90
2019-02-18T11:54:37.871Z,17.07
2019-02-18T11:58:00.394Z,16.83
2019-02-18T12:01:23.050Z,17.73
2019-02-18T12:04:45.637Z,16.90
2019-02-18T12:08:08.362Z,16.43
2019-02-18T12:11:38.005Z,16.70
2019-02-18T12:14:54.780Z,17.57
2019-02-18T12:18:17.216Z,16.00
2019-02-18T12:21:40.287Z,16.47
2019-02-18T12:25:03.187Z,17.70
2019-02-18T12:28:25.669Z,15.20
2019-02-18T12:31:48.013Z,16.67
2019-02-18T12:35:10.635Z,14.80
2019-02-18T12:38:33.108Z,15.63
2019-02-18T12:41:55.598Z,16.10
2019-02-18T12:45:17.991Z,15.00
2019-02-18T12:48:40.651Z,15.07
2019-02-18T12:52:03.297Z,14.33
2019-02-18T12:55:26.373Z,15.60
2019-02-18T12:58:54.576Z,14.73
2019-02-18T13:02:13.218Z,14.53
2019-02-18T13:05:35.623Z,14.37
2019-02-18T13:08:58.575Z,12.87
2019-02-18T13:12:21.154Z,17.20
2019-02-18T13:15:43.678Z,15.43
2019-02-18T13:19:06.389Z,14.60
2019-02-18T13:22:29.247Z,14.17
2019-02-18T13:25:52.191Z,15.00
2019-02-18T13:29:15.213Z,14.53
2019-02-18T13:32:38.093Z,14.20
2019-02-18T13:36:00.614Z,15.47
2019-02-18T13:39:22.953Z,15.33
2019-02-18T13:42:45.558Z,15.00
2019-02-18T13:46:08.337Z,14.50
2019-02-18T13:49:31.041Z,15.43
2019-02-18T13:52:54.126Z,13.57
2019-02-18T13:56:16.911Z,15.03
2019-02-18T13:59:39.649Z,15.00
2019-02-18T14:03:02.358Z,16.13
2019-02-18T14:06:25.090Z,15.17
2019-02-18T14:09:47.243Z,14.40
2019-02-18T14:13:10.096Z,14.20
2019-02-18T14:16:32.462Z,15.63
2019-02-18T14:19:54.946Z,15.00
2019-02-18T14:23:17.326Z,19.73
2019-02-18T14:26:40.196Z,15.03
2019-02-18T14:30:02.714Z,15.50
2019-02-18T14:33:25.636Z,16.27
2019-02-18T14:36:48.400Z,15.37
2019-02-18T14:40:12.838Z,15.17
2019-02-18T14:43:35.190Z,15.67
2019-02-18T14:46:57.655Z,14.63
2019-02-18T14:50:20.094Z,15.00
2019-02-18T14:53:42.914Z,15.30
2019-02-18T14:57:06.143Z,14.00
2019-02-18T15:00:29.098Z,18.37
2019-02-18T15:03:51.595Z,17.03
2019-02-18T15:07:13.798Z,15.73
2019-02-18T15:10:36.288Z,16.27
2019-02-18T15:13:59.097Z,15.87
2019-02-18T15:17:21.610Z,21.50
2019-02-18T15:20:43.856Z,18.13
2019-02-18T15:24:06.581Z,15.63
2019-02-18T15:27:29.322Z,15.50
2019-02-18T15:30:52.132Z,13.77
2019-02-18T15:34:14.708Z,16.43
2019-02-18T15:37:37.491Z,16.23
2019-02-18T15:40:59.768Z,16.30
2019-02-18T15:44:22.661Z,17.40
2019-02-18T15:47:45.328Z,18.87
2019-02-18T15:51:08.325Z,17.27
2019-02-18T15:54:31.681Z,18.87
2019-02-18T15:57:54.729Z,17.93
2019-02-18T16:01:17.418Z,16.23
2019-02-18T16:04:39.896Z,14.30
2019-02-18T16:08:02.252Z,13.13
2019-02-18T16:11:24.673Z,15.03
2019-02-18T16:14:47.454Z,15.53
2019-02-18T16:18:10.059Z,12.00
2019-02-18T16:21:32.852Z,14.93
2019-02-18T16:24:55.560Z,13.57
2019-02-18T16:28:18.018Z,14.93
2019-02-18T16:31:40.931Z,14.60
2019-02-18T16:35:04.033Z,15.23
2019-02-18T16:38:26.949Z,14.37
2019-02-18T16:41:49.627Z,14.77
2019-02-18T16:45:13.227Z,14.27
2019-02-18T16:48:35.378Z,13.07
2019-02-18T16:51:58.179Z,15.13
2019-02-18T16:55:21.331Z,13.37
2019-02-18T16:58:44.398Z,13.27
2019-02-18T17:02:07.220Z,14.33
2019-02-18T17:05:29.646Z,13.83
2019-02-18T17:08:52.089Z,14.27
2019-02-18T17:12:14.885Z,15.33
2019-02-18T17:15:37.079Z,15.53
2019-02-18T17:18:59.791Z,12.93
2019-02-18T17:22:22.285Z,13.90
2019-02-18T17:25:45.126Z,16.47
2019-02-18T17:29:07.969Z,15.87
2019-02-18T17:32:30.401Z,13.80
2019-02-18T17:35:53.221Z,17.37
2019-02-18T17:39:15.546Z,16.47
2019-02-18T17:42:38.126Z,14.47
2019-02-18T17:46:01.145Z,15.30
2019-02-18T17:49:24.561Z,14.77
2019-02-18T17:52:47.847Z,16.43
2019-02-18T17:56:10.758Z,16.83
2019-02-18T17:59:33.454Z,15.90
2019-02-18T18:02:56.350Z,14.27
2019-02-18T18:06:19.149Z,15.80
2019-02-18T18:09:41.738Z,15.07
2019-02-18T18:13:04.562Z,16.03
2019-02-18T18:16:28.228Z,18.23
2019-02-18T18:19:51.245Z,15.67
2019-02-18T18:23:13.834Z,15.73
2019-02-18T18:26:36.662Z,15.63
2019-02-18T18:29:58.952Z,15.30
2019-02-18T18:33:21.394Z,17.27
2019-02-18T18:36:43.930Z,16.57
2019-02-18T18:40:07.074Z,16.27
2019-02-18T18:43:33.767Z,15.93
2019-02-18T18:46:53.470Z,16.93
2019-02-18T18:50:16.845Z,16.40
2019-02-18T18:53:39.254Z,16.90
2019-02-18T18:57:02.149Z,16.70
2019-02-18T19:00:25.217Z,17.20
2019-02-18T19:03:47.587Z,16.23
2019-02-18T19:07:10.073Z,17.13
2019-02-18T19:10:32.605Z,16.60
2019-02-18T19:13:56.618Z,17.40
2019-02-18T19:17:19.363Z,16.97
2019-02-18T19:20:41.721Z,18.53
2019-02-18T19:24:03.952Z,18.00
2019-02-18T19:27:26.638Z,18.83
2019-02-18T19:30:49.291Z,18.33
2019-02-18T19:34:12.085Z,16.83
2019-02-18T19:37:34.680Z,16.50
2019-02-18T19:40:57.534Z,17.10
2019-02-18T19:44:19.976Z,15.87
2019-02-18T19:47:42.552Z,17.87
2019-02-18T19:51:05.415Z,17.13
2019-02-18T19:54:27.842Z,16.37
2019-02-18T19:57:50.574Z,16.03
2019-02-18T20:01:13.007Z,16.30
2019-02-18T20:04:35.853Z,16.57
2019-02-18T20:07:58.673Z,17.77
2019-02-18T20:11:21.157Z,17.10
2019-02-18T20:14:43.694Z,18.00
2019-02-18T20:18:06.161Z,15.30
2019-02-18T20:21:28.782Z,16.43
2019-02-18T20:24:51.418Z,17.10
2019-02-18T20:28:14.358Z,17.40
2019-02-18T20:31:37.407Z,15.83
2019-02-18T20:35:00.479Z,16.83
2019-02-18T20:38:23.598Z,16.70
2019-02-18T20:41:46.461Z,17.73
2019-02-18T20:45:10.389Z,17.47
2019-02-18T20:48:33.331Z,16.67
2019-02-18T20:51:56.003Z,17.93
2019-02-18T20:55:18.827Z,18.70
2019-02-18T20:58:41.687Z,18.67
2019-02-18T21:02:04.356Z,18.23
2019-02-18T21:05:27.148Z,17.93
2019-02-18T21:08:49.696Z,17.77
2019-02-18T21:12:19.614Z,24.07
2019-02-18T21:15:36.987Z,23.30
2019-02-18T21:18:59.857Z,21.23
2019-02-18T21:22:22.583Z,21.80
2019-02-18T21:25:45.291Z,22.83
2019-02-18T21:29:08.110Z,21.07
2019-02-18T21:32:30.343Z,21.60
2019-02-18T21:35:53.201Z,20.80
2019-02-18T21:39:16.005Z,19.40
2019-02-18T21:42:38.610Z,21.43
2019-02-18T21:46:01.445Z,22.07
2019-02-18T21:49:24.233Z,21.17
2019-02-18T21:52:46.750Z,21.67
2019-02-18T21:56:09.379Z,21.53
2019-02-18T21:59:31.852Z,20.63
2019-02-18T22:02:54.346Z,21.00
2019-02-18T22:06:16.730Z,21.37
2019-02-18T22:09:39.183Z,19.00
2019-02-18T22:13:01.957Z,22.87
2019-02-18T22:16:24.442Z,20.97
2019-02-18T22:19:46.833Z,20.33
2019-02-18T22:23:09.536Z,19.10
2019-02-18T22:26:32.252Z,19.00
2019-02-18T22:29:54.751Z,18.90
2019-02-18T22:33:17.298Z,20.97
2019-02-18T22:36:39.878Z,19.60
2019-02-18T22:40:02.511Z,20.73
2019-02-18T22:43:25.315Z,20.17
2019-02-18T22:46:47.857Z,21.77
2019-02-18T22:50:10.983Z,19.87
2019-02-18T22:53:33.770Z,20.90
2019-02-18T22:56:56.840Z,19.57
2019-02-18T23:00:50.774Z,19.77
2019-02-18T23:04:13.168Z,19.37
2019-02-18T23:07:36.111Z,20.23
2019-02-18T23:10:58.973Z,19.23
2019-02-18T23:14:21.905Z,20.10
2019-02-18T23:17:44.834Z,19.00
2019-02-18T23:21:07.564Z,18.60
2019-02-18T23:24:30.114Z,18.43
2019-02-18T23:27:52.844Z,18.90
2019-02-18T23:31:15.356Z,19.63
2019-02-18T23:34:37.798Z,18.70
2019-02-18T23:38:00.207Z,18.83
2019-02-18T23:41:22.911Z,18.50
2019-02-18T23:44:45.663Z,18.53
2019-02-18T23:48:08.395Z,19.50
2019-02-18T23:51:30.546Z,19.63
2019-02-18T23:54:52.650Z,19.77
2019-02-18T23:58:14.884Z,19.87
